CEB189 RPMD-RPVM
Flight info
| Callsign | CEB189 |
|---|---|
| Flight time | 0h 35m |
| Altitude | 26000 |
| Route | JOFER3R JOFER W8 BOHOL BOHOL3P |
| Aircraft | A20N/M-SDE2E3FGHIRWXY/LB1 |
Departure
| Time | 2026-05-06 02:19 |
|---|---|
| Airport | Francisco Bangoy International Airport (RPMD) |
Arrival
| Time | 2026-05-06 02:55 |
|---|---|
| Airport | Mactan Cebu International Airport (RPVM) |
| Time | Latitude | Longitude | Altitude | Speed | Heading |
|---|---|---|---|---|---|
| 2026-05-06 02:07 | 7.12990 | 125.64600 | 72 ft | 0 kts | 323° |
| 2026-05-06 02:10 | 7.12962 | 125.64621 | 79 ft | 5 kts | 323° |
| 2026-05-06 02:10 | 7.12935 | 125.64642 | 73 ft | 5 kts | 321° |
| 2026-05-06 02:11 | 7.12931 | 125.64664 | 71 ft | 0 kts | 218° |
| 2026-05-06 02:13 | 7.12929 | 125.64662 | 70 ft | 1 kts | 218° |
| 2026-05-06 02:13 | 7.12917 | 125.64653 | 67 ft | 3 kts | 218° |
| 2026-05-06 02:13 | 7.12911 | 125.64648 | 71 ft | 0 kts | 218° |
| 2026-05-06 02:14 | 7.12910 | 125.64647 | 71 ft | 1 kts | 218° |
| 2026-05-06 02:14 | 7.12895 | 125.64634 | 71 ft | 5 kts | 224° |
| 2026-05-06 02:14 | 7.12813 | 125.64543 | 68 ft | 13 kts | 228° |
| 2026-05-06 02:15 | 7.12753 | 125.64473 | 70 ft | 10 kts | 229° |
| 2026-05-06 02:15 | 7.12684 | 125.64461 | 76 ft | 12 kts | 153° |
| 2026-05-06 02:15 | 7.12609 | 125.64522 | 72 ft | 16 kts | 140° |
| 2026-05-06 02:15 | 7.12511 | 125.64526 | 73 ft | 17 kts | 221° |
| 2026-05-06 02:16 | 7.12426 | 125.64424 | 70 ft | 20 kts | 231° |
| 2026-05-06 02:16 | 7.12330 | 125.64308 | 76 ft | 22 kts | 229° |
| 2026-05-06 02:16 | 7.12217 | 125.64187 | 73 ft | 25 kts | 227° |
| 2026-05-06 02:16 | 7.12098 | 125.64053 | 77 ft | 27 kts | 229° |
| 2026-05-06 02:17 | 7.11972 | 125.63907 | 72 ft | 29 kts | 229° |
| 2026-05-06 02:17 | 7.11841 | 125.63753 | 74 ft | 26 kts | 230° |
| 2026-05-06 02:17 | 7.11761 | 125.63657 | 68 ft | 13 kts | 238° |
| 2026-05-06 02:17 | 7.11745 | 125.63560 | 70 ft | 15 kts | 244° |
| 2026-05-06 02:18 | 7.11682 | 125.63567 | 71 ft | 12 kts | 101° |
| 2026-05-06 02:18 | 7.11718 | 125.63615 | 65 ft | 0 kts | 47° |
| 2026-05-06 02:18 | 7.11724 | 125.63621 | 67 ft | 3 kts | 47° |
| 2026-05-06 02:18 | 7.11832 | 125.63746 | 70 ft | 58 kts | 50° |
| 2026-05-06 02:19 | 7.12244 | 125.64223 | 70 ft | 119 kts | 49° |
| 2026-05-06 02:19 | 7.12891 | 125.64966 | 182 ft | 155 kts | 47° |
| 2026-05-06 02:19 | 7.13600 | 125.65774 | 853 ft | 153 kts | 37° |
| 2026-05-06 02:19 | 7.14543 | 125.66163 | 1680 ft | 146 kts | 3° |
| 2026-05-06 02:20 | 7.16588 | 125.65969 | 2310 ft | 161 kts | 353° |
| 2026-05-06 02:20 | 7.17771 | 125.65821 | 2770 ft | 180 kts | 353° |
| 2026-05-06 02:20 | 7.19088 | 125.65653 | 3275 ft | 200 kts | 353° |
| 2026-05-06 02:21 | 7.20425 | 125.65483 | 3417 ft | 205 kts | 354° |
| 2026-05-06 02:21 | 7.21942 | 125.65298 | 3832 ft | 232 kts | 354° |
| 2026-05-06 02:21 | 7.23610 | 125.65095 | 4384 ft | 255 kts | 354° |
| 2026-05-06 02:21 | 7.25417 | 125.64874 | 5193 ft | 265 kts | 354° |
| 2026-05-06 02:22 | 7.27271 | 125.64650 | 6104 ft | 270 kts | 354° |
| 2026-05-06 02:22 | 7.29163 | 125.64420 | 7001 ft | 275 kts | 354° |
| 2026-05-06 02:22 | 7.31076 | 125.64189 | 7884 ft | 277 kts | 354° |
| 2026-05-06 02:22 | 7.33005 | 125.63957 | 8748 ft | 283 kts | 354° |
| 2026-05-06 02:23 | 7.34950 | 125.63725 | 9615 ft | 287 kts | 354° |
| 2026-05-06 02:23 | 7.36965 | 125.63484 | 10304 ft | 298 kts | 354° |
| 2026-05-06 02:23 | 7.39106 | 125.63226 | 10614 ft | 320 kts | 354° |
| 2026-05-06 02:23 | 7.41399 | 125.62950 | 10944 ft | 339 kts | 354° |
| 2026-05-06 02:24 | 7.43771 | 125.62657 | 11594 ft | 346 kts | 353° |
| 2026-05-06 02:24 | 7.46108 | 125.62036 | 12368 ft | 351 kts | 340° |
| 2026-05-06 02:24 | 7.48262 | 125.60897 | 13078 ft | 358 kts | 327° |
| 2026-05-06 02:24 | 7.50243 | 125.59336 | 13787 ft | 363 kts | 323° |
| 2026-05-06 02:25 | 7.52225 | 125.57729 | 14413 ft | 368 kts | 323° |
| 2026-05-06 02:25 | 7.54240 | 125.56102 | 15043 ft | 372 kts | 323° |
| 2026-05-06 02:25 | 7.56276 | 125.54463 | 15652 ft | 377 kts | 323° |
| 2026-05-06 02:25 | 7.58316 | 125.52825 | 16253 ft | 381 kts | 323° |
| 2026-05-06 02:26 | 7.60410 | 125.51144 | 16828 ft | 386 kts | 323° |
| 2026-05-06 02:26 | 7.62525 | 125.49445 | 17379 ft | 391 kts | 323° |
| 2026-05-06 02:26 | 7.64673 | 125.47723 | 17977 ft | 395 kts | 323° |
| 2026-05-06 02:26 | 7.66810 | 125.46008 | 18521 ft | 398 kts | 323° |
| 2026-05-06 02:27 | 7.68992 | 125.44254 | 19060 ft | 401 kts | 323° |
| 2026-05-06 02:27 | 7.71195 | 125.42484 | 19547 ft | 405 kts | 323° |
| 2026-05-06 02:27 | 7.73417 | 125.40701 | 20003 ft | 410 kts | 323° |
| 2026-05-06 02:27 | 7.75657 | 125.38900 | 20481 ft | 413 kts | 323° |
| 2026-05-06 02:28 | 7.77911 | 125.37088 | 20986 ft | 416 kts | 323° |
| 2026-05-06 02:28 | 7.80166 | 125.35275 | 21463 ft | 420 kts | 323° |
| 2026-05-06 02:28 | 7.82461 | 125.33431 | 21952 ft | 423 kts | 323° |
| 2026-05-06 02:28 | 7.84773 | 125.31573 | 22428 ft | 427 kts | 323° |
| 2026-05-06 02:29 | 7.87115 | 125.29691 | 22886 ft | 430 kts | 323° |
| 2026-05-06 02:29 | 7.89472 | 125.27798 | 23339 ft | 434 kts | 323° |
| 2026-05-06 02:29 | 7.91844 | 125.25890 | 23754 ft | 437 kts | 323° |
| 2026-05-06 02:29 | 7.94196 | 125.23996 | 24192 ft | 438 kts | 323° |
| 2026-05-06 02:30 | 7.96626 | 125.22145 | 24628 ft | 438 kts | 328° |
| 2026-05-06 02:30 | 7.99264 | 125.20584 | 25001 ft | 438 kts | 335° |
| 2026-05-06 02:30 | 8.01998 | 125.19179 | 25377 ft | 441 kts | 334° |
| 2026-05-06 02:30 | 8.04708 | 125.17773 | 25672 ft | 446 kts | 334° |
| 2026-05-06 02:31 | 8.07495 | 125.16324 | 25766 ft | 455 kts | 334° |
| 2026-05-06 02:31 | 8.10334 | 125.14845 | 25862 ft | 464 kts | 334° |
| 2026-05-06 02:31 | 8.13242 | 125.13330 | 25931 ft | 473 kts | 334° |
| 2026-05-06 02:31 | 8.16195 | 125.11791 | 25936 ft | 483 kts | 334° |
| 2026-05-06 02:32 | 8.19209 | 125.10220 | 25939 ft | 491 kts | 334° |
| 2026-05-06 02:32 | 8.22280 | 125.08620 | 25948 ft | 499 kts | 334° |
| 2026-05-06 02:32 | 8.25398 | 125.06995 | 25948 ft | 506 kts | 334° |
| 2026-05-06 02:32 | 8.28509 | 125.05374 | 25947 ft | 511 kts | 334° |
| 2026-05-06 02:33 | 8.31677 | 125.03722 | 25943 ft | 514 kts | 334° |
| 2026-05-06 02:33 | 8.33778 | 125.02626 | 25945 ft | 515 kts | 334° |
| 2026-05-06 02:33 | 8.41257 | 124.98721 | 25943 ft | 518 kts | 334° |
| 2026-05-06 02:34 | 8.44436 | 124.97061 | 25945 ft | 519 kts | 334° |
| 2026-05-06 02:34 | 8.47654 | 124.95380 | 25938 ft | 519 kts | 334° |
| 2026-05-06 02:34 | 8.50871 | 124.93698 | 25930 ft | 520 kts | 334° |
| 2026-05-06 02:34 | 8.54100 | 124.92010 | 25931 ft | 520 kts | 334° |
| 2026-05-06 02:35 | 8.57313 | 124.90331 | 25930 ft | 520 kts | 334° |
| 2026-05-06 02:35 | 8.60526 | 124.88651 | 25928 ft | 520 kts | 334° |
| 2026-05-06 02:35 | 8.63696 | 124.86994 | 25928 ft | 520 kts | 334° |
| 2026-05-06 02:35 | 8.66919 | 124.85307 | 25929 ft | 520 kts | 334° |
| 2026-05-06 02:36 | 8.70138 | 124.83623 | 25916 ft | 520 kts | 334° |
| 2026-05-06 02:36 | 8.73352 | 124.81941 | 25914 ft | 520 kts | 334° |
| 2026-05-06 02:36 | 8.76576 | 124.80254 | 25914 ft | 520 kts | 334° |
| 2026-05-06 02:36 | 8.79794 | 124.78570 | 25914 ft | 520 kts | 334° |
| 2026-05-06 02:37 | 8.82983 | 124.76900 | 25915 ft | 520 kts | 334° |
| 2026-05-06 02:37 | 8.86197 | 124.75219 | 25908 ft | 520 kts | 334° |
| 2026-05-06 02:37 | 8.89410 | 124.73537 | 25908 ft | 521 kts | 334° |
| 2026-05-06 02:37 | 8.92641 | 124.71846 | 25906 ft | 520 kts | 334° |
| 2026-05-06 02:38 | 8.95862 | 124.70159 | 25903 ft | 520 kts | 334° |
| 2026-05-06 02:38 | 8.99087 | 124.68470 | 25902 ft | 520 kts | 334° |
| 2026-05-06 02:38 | 9.02253 | 124.66811 | 25903 ft | 520 kts | 334° |
| 2026-05-06 02:38 | 9.05474 | 124.65122 | 25895 ft | 521 kts | 334° |
| 2026-05-06 02:39 | 9.08696 | 124.63432 | 25869 ft | 522 kts | 334° |
| 2026-05-06 02:39 | 9.11919 | 124.61742 | 25841 ft | 522 kts | 334° |
| 2026-05-06 02:39 | 9.15159 | 124.60041 | 25813 ft | 523 kts | 334° |
| 2026-05-06 02:39 | 9.18397 | 124.58343 | 25785 ft | 523 kts | 334° |
| 2026-05-06 02:40 | 9.21591 | 124.56666 | 25756 ft | 523 kts | 334° |
| 2026-05-06 02:40 | 9.24828 | 124.54966 | 25731 ft | 523 kts | 334° |
| 2026-05-06 02:40 | 9.28062 | 124.53269 | 25703 ft | 523 kts | 334° |
| 2026-05-06 02:40 | 9.31312 | 124.51561 | 25675 ft | 523 kts | 334° |
| 2026-05-06 02:41 | 9.34542 | 124.49864 | 25614 ft | 520 kts | 334° |
| 2026-05-06 02:41 | 9.37731 | 124.48188 | 25549 ft | 513 kts | 333° |
| 2026-05-06 02:41 | 9.40882 | 124.46532 | 25486 ft | 508 kts | 334° |
| 2026-05-06 02:41 | 9.44018 | 124.44883 | 25436 ft | 505 kts | 334° |
| 2026-05-06 02:42 | 9.47050 | 124.43288 | 25201 ft | 478 kts | 334° |
| 2026-05-06 02:42 | 9.49948 | 124.41761 | 24576 ft | 463 kts | 334° |
| 2026-05-06 02:42 | 9.52786 | 124.40269 | 23660 ft | 457 kts | 334° |
| 2026-05-06 02:42 | 9.55567 | 124.38735 | 22596 ft | 454 kts | 330° |
| 2026-05-06 02:43 | 9.58140 | 124.36916 | 21625 ft | 448 kts | 323° |
| 2026-05-06 02:43 | 9.60431 | 124.34861 | 20760 ft | 441 kts | 317° |
| 2026-05-06 02:43 | 9.62639 | 124.32736 | 19800 ft | 436 kts | 318° |
| 2026-05-06 02:43 | 9.64829 | 124.30649 | 18886 ft | 430 kts | 318° |
| 2026-05-06 02:44 | 9.66987 | 124.28600 | 18173 ft | 420 kts | 317° |
| 2026-05-06 02:44 | 9.69097 | 124.26592 | 17236 ft | 413 kts | 317° |
| 2026-05-06 02:44 | 9.71177 | 124.24607 | 16242 ft | 409 kts | 318° |
| 2026-05-06 02:44 | 9.73241 | 124.22639 | 15342 ft | 404 kts | 317° |
| 2026-05-06 02:45 | 9.75264 | 124.20711 | 14543 ft | 396 kts | 317° |
| 2026-05-06 02:45 | 9.77262 | 124.18803 | 13696 ft | 392 kts | 318° |
| 2026-05-06 02:45 | 9.78569 | 124.17554 | 13034 ft | 391 kts | 318° |
| 2026-05-06 02:45 | 9.80531 | 124.15678 | 12161 ft | 384 kts | 318° |
| 2026-05-06 02:46 | 9.82463 | 124.13834 | 11315 ft | 379 kts | 318° |
| 2026-05-06 02:46 | 9.84372 | 124.12011 | 10534 ft | 373 kts | 318° |
| 2026-05-06 02:46 | 9.86208 | 124.10257 | 10240 ft | 352 kts | 318° |
| 2026-05-06 02:46 | 9.87943 | 124.08596 | 10063 ft | 331 kts | 319° |
| 2026-05-06 02:47 | 9.89575 | 124.07035 | 9878 ft | 313 kts | 319° |
| 2026-05-06 02:47 | 9.91118 | 124.05562 | 9404 ft | 306 kts | 319° |
| 2026-05-06 02:47 | 9.92660 | 124.04092 | 8828 ft | 303 kts | 319° |
| 2026-05-06 02:47 | 9.94186 | 124.02635 | 8268 ft | 299 kts | 319° |
| 2026-05-06 02:48 | 9.95690 | 124.01196 | 7702 ft | 297 kts | 319° |
| 2026-05-06 02:48 | 9.97188 | 123.99765 | 7142 ft | 294 kts | 319° |
| 2026-05-06 02:48 | 9.98671 | 123.98348 | 6620 ft | 291 kts | 319° |
| 2026-05-06 02:48 | 10.00138 | 123.96943 | 6079 ft | 288 kts | 319° |
| 2026-05-06 02:49 | 10.01587 | 123.95560 | 5562 ft | 285 kts | 319° |
| 2026-05-06 02:49 | 10.03026 | 123.94183 | 4970 ft | 284 kts | 319° |
| 2026-05-06 02:49 | 10.04457 | 123.92815 | 4510 ft | 278 kts | 318° |
| 2026-05-06 02:49 | 10.05837 | 123.91494 | 4259 ft | 265 kts | 319° |
| 2026-05-06 02:50 | 10.07245 | 123.90404 | 4136 ft | 245 kts | 338° |
| 2026-05-06 02:50 | 10.08825 | 123.90077 | 4039 ft | 223 kts | 4° |
| 2026-05-06 02:50 | 10.10310 | 123.90169 | 4014 ft | 217 kts | 5° |
| 2026-05-06 02:50 | 10.11843 | 123.90258 | 4010 ft | 220 kts | 5° |
| 2026-05-06 02:51 | 10.13362 | 123.90343 | 3992 ft | 220 kts | 4° |
| 2026-05-06 02:51 | 10.14894 | 123.90427 | 3913 ft | 218 kts | 4° |
| 2026-05-06 02:51 | 10.16415 | 123.90512 | 3650 ft | 219 kts | 5° |
| 2026-05-06 02:51 | 10.17907 | 123.90594 | 3430 ft | 212 kts | 4° |
| 2026-05-06 02:52 | 10.19372 | 123.90677 | 3104 ft | 210 kts | 4° |
| 2026-05-06 02:52 | 10.20838 | 123.90758 | 2712 ft | 209 kts | 4° |
| 2026-05-06 02:52 | 10.22299 | 123.90841 | 2221 ft | 211 kts | 5° |
| 2026-05-06 02:52 | 10.23692 | 123.91065 | 2002 ft | 197 kts | 25° |
| 2026-05-06 02:53 | 10.24745 | 123.91853 | 1751 ft | 189 kts | 46° |
| 2026-05-06 02:53 | 10.25656 | 123.92800 | 1384 ft | 184 kts | 46° |
| 2026-05-06 02:53 | 10.26553 | 123.93711 | 1006 ft | 175 kts | 46° |
| 2026-05-06 02:53 | 10.27377 | 123.94563 | 667 ft | 165 kts | 47° |
| 2026-05-06 02:54 | 10.28137 | 123.95349 | 496 ft | 148 kts | 45° |
| 2026-05-06 02:54 | 10.28838 | 123.96039 | 292 ft | 136 kts | 43° |
| 2026-05-06 02:54 | 10.29483 | 123.96676 | 150 ft | 121 kts | 44° |
| 2026-05-06 02:54 | 10.30058 | 123.97253 | 34 ft | 110 kts | 44° |
| 2026-05-06 02:55 | 10.30473 | 123.97662 | 35 ft | 42 kts | 44° |
| 2026-05-06 02:55 | 10.30591 | 123.97780 | 35 ft | 38 kts | 44° |
| 2026-05-06 02:55 | 10.30693 | 123.97864 | 36 ft | 19 kts | 17° |
| 2026-05-06 02:55 | 10.30755 | 123.97822 | 36 ft | 12 kts | 295° |
| 2026-05-06 02:56 | 10.30822 | 123.97701 | 37 ft | 24 kts | 324° |
| 2026-05-06 02:56 | 10.30936 | 123.97705 | 37 ft | 5 kts | 10° |
| 2026-05-06 02:56 | 10.30990 | 123.97779 | 37 ft | 27 kts | 47° |
| 2026-05-06 02:56 | 10.31161 | 123.97944 | 37 ft | 31 kts | 44° |
| 2026-05-06 02:57 | 10.31255 | 123.97965 | 39 ft | 18 kts | 314° |
| 2026-05-06 02:57 | 10.31353 | 123.97891 | 39 ft | 6 kts | 10° |
| 2026-05-06 02:57 | 10.31372 | 123.97913 | 37 ft | 13 kts | 46° |
| 2026-05-06 02:57 | 10.31433 | 123.97977 | 39 ft | 10 kts | 45° |
| 2026-05-06 02:58 | 10.31486 | 123.98024 | 39 ft | 9 kts | 22° |
| 2026-05-06 02:58 | 10.31532 | 123.97995 | 39 ft | 6 kts | 318° |
| 2026-05-06 02:58 | 10.31543 | 123.97984 | 39 ft | 4 kts | 316° |
| 2026-05-06 02:58 | 10.31555 | 123.97974 | 38 ft | 0 kts | 320° |